sensor_id;sensor_type;location;lat;lon;timestamp;temperature;humidity
50690;DHT22;54375;48.298;11.238;2023-04-24T00:06:48;10.30;95.70
50690;DHT22;54375;48.298;11.238;2023-04-24T00:21:51;10.30;95.50
50690;DHT22;54375;48.298;11.238;2023-04-24T00:36:53;10.30;95.30
50690;DHT22;54375;48.298;11.238;2023-04-24T00:51:56;10.20;95.30
50690;DHT22;54375;48.298;11.238;2023-04-24T01:06:58;10.10;95.40
50690;DHT22;54375;48.298;11.238;2023-04-24T01:22:02;9.90;95.40
50690;DHT22;54375;48.298;11.238;2023-04-24T01:37:04;9.70;94.90
50690;DHT22;54375;48.298;11.238;2023-04-24T01:52:06;9.60;94.80
50690;DHT22;54375;48.298;11.238;2023-04-24T02:07:09;9.50;94.70
50690;DHT22;54375;48.298;11.238;2023-04-24T02:22:11;9.50;94.70
50690;DHT22;54375;48.298;11.238;2023-04-24T02:37:13;9.40;94.90
50690;DHT22;54375;48.298;11.238;2023-04-24T02:52:15;9.30;95.10
50690;DHT22;54375;48.298;11.238;2023-04-24T03:07:18;9.20;95.70
50690;DHT22;54375;48.298;11.238;2023-04-24T03:22:20;9.20;96.10
50690;DHT22;54375;48.298;11.238;2023-04-24T03:37:23;9.20;96.20
50690;DHT22;54375;48.298;11.238;2023-04-24T03:52:25;9.30;96.20
50690;DHT22;54375;48.298;11.238;2023-04-24T04:07:27;9.20;95.90
50690;DHT22;54375;48.298;11.238;2023-04-24T04:22:29;9.20;95.80
50690;DHT22;54375;48.298;11.238;2023-04-24T04:37:32;9.20;95.80
50690;DHT22;54375;48.298;11.238;2023-04-24T04:52:35;9.10;95.70
50690;DHT22;54375;48.298;11.238;2023-04-24T05:07:37;9.10;95.60
50690;DHT22;54375;48.298;11.238;2023-04-24T05:22:39;9.10;95.30
50690;DHT22;54375;48.298;11.238;2023-04-24T05:37:42;9.40;95.20
50690;DHT22;54375;48.298;11.238;2023-04-24T05:52:44;9.50;94.70
50690;DHT22;54375;48.298;11.238;2023-04-24T06:07:46;9.80;94.50
50690;DHT22;54375;48.298;11.238;2023-04-24T06:22:49;10.00;94.00
50690;DHT22;54375;48.298;11.238;2023-04-24T06:37:51;10.00;93.30
50690;DHT22;54375;48.298;11.238;2023-04-24T06:52:53;10.30;92.70
50690;DHT22;54375;48.298;11.238;2023-04-24T07:07:55;10.40;92.20
50690;DHT22;54375;48.298;11.238;2023-04-24T07:22:57;10.60;91.50
50690;DHT22;54375;48.298;11.238;2023-04-24T07:37:59;10.70;90.60
50690;DHT22;54375;48.298;11.238;2023-04-24T07:53:02;10.80;90.80
50690;DHT22;54375;48.298;11.238;2023-04-24T08:08:04;10.70;90.60
50690;DHT22;54375;48.298;11.238;2023-04-24T08:23:06;10.50;91.10
50690;DHT22;54375;48.298;11.238;2023-04-24T08:38:08;10.00;92.20
50690;DHT22;54375;48.298;11.238;2023-04-24T08:53:10;10.40;88.40
50690;DHT22;54375;48.298;11.238;2023-04-24T09:08:13;10.70;84.30
50690;DHT22;54375;48.298;11.238;2023-04-24T09:23:18;11.10;79.90
50690;DHT22;54375;48.298;11.238;2023-04-24T09:38:30;11.40;76.90
50690;DHT22;54375;48.298;11.238;2023-04-24T09:53:32;11.80;76.90
50690;DHT22;54375;48.298;11.238;2023-04-24T10:08:35;11.70;77.00
50690;DHT22;54375;48.298;11.238;2023-04-24T10:23:38;13.10;73.50
50690;DHT22;54375;48.298;11.238;2023-04-24T10:38:42;13.00;71.80
50690;DHT22;54375;48.298;11.238;2023-04-24T10:53:45;11.80;75.90
50690;DHT22;54375;48.298;11.238;2023-04-24T11:08:48;11.40;81.50
50690;DHT22;54375;48.298;11.238;2023-04-24T11:23:50;10.00;83.90
50690;DHT22;54375;48.298;11.238;2023-04-24T11:38:52;10.80;85.20
50690;DHT22;54375;48.298;11.238;2023-04-24T11:53:55;12.90;75.30
50690;DHT22;54375;48.298;11.238;2023-04-24T12:08:57;13.00;69.00
50690;DHT22;54375;48.298;11.238;2023-04-24T12:23:59;14.00;61.40
50690;DHT22;54375;48.298;11.238;2023-04-24T12:39:01;14.40;61.60
50690;DHT22;54375;48.298;11.238;2023-04-24T12:54:03;13.50;65.00
50690;DHT22;54375;48.298;11.238;2023-04-24T13:09:06;14.50;60.10
50690;DHT22;54375;48.298;11.238;2023-04-24T13:24:09;14.50;56.20
50690;DHT22;54375;48.298;11.238;2023-04-24T13:39:12;15.00;53.00
50690;DHT22;54375;48.298;11.238;2023-04-24T13:54:14;13.60;61.60
50690;DHT22;54375;48.298;11.238;2023-04-24T14:09:17;14.30;56.40
50690;DHT22;54375;48.298;11.238;2023-04-24T14:24:19;13.60;55.00
50690;DHT22;54375;48.298;11.238;2023-04-24T14:39:21;12.90;58.00
50690;DHT22;54375;48.298;11.238;2023-04-24T14:54:24;13.20;54.80
50690;DHT22;54375;48.298;11.238;2023-04-24T15:09:27;13.10;55.50
50690;DHT22;54375;48.298;11.238;2023-04-24T15:24:29;13.30;56.40
50690;DHT22;54375;48.298;11.238;2023-04-24T15:39:32;13.50;55.00
50690;DHT22;54375;48.298;11.238;2023-04-24T15:54:34;13.60;53.50
50690;DHT22;54375;48.298;11.238;2023-04-24T16:09:36;12.80;53.40
50690;DHT22;54375;48.298;11.238;2023-04-24T16:24:38;12.70;53.50
50690;DHT22;54375;48.298;11.238;2023-04-24T16:39:40;12.70;50.30
50690;DHT22;54375;48.298;11.238;2023-04-24T16:54:42;12.80;53.60
50690;DHT22;54375;48.298;11.238;2023-04-24T17:09:45;12.60;54.20
50690;DHT22;54375;48.298;11.238;2023-04-24T17:24:47;12.10;52.30
50690;DHT22;54375;48.298;11.238;2023-04-24T17:39:50;11.90;55.00
50690;DHT22;54375;48.298;11.238;2023-04-24T17:54:52;11.10;58.30
50690;DHT22;54375;48.298;11.238;2023-04-24T18:09:54;10.60;60.30
50690;DHT22;54375;48.298;11.238;2023-04-24T18:24:56;10.10;63.00
50690;DHT22;54375;48.298;11.238;2023-04-24T18:39:59;9.80;65.50
50690;DHT22;54375;48.298;11.238;2023-04-24T18:55:02;9.40;68.10
50690;DHT22;54375;48.298;11.238;2023-04-24T19:10:05;8.90;69.60
50690;DHT22;54375;48.298;11.238;2023-04-24T19:25:08;8.30;71.20
50690;DHT22;54375;48.298;11.238;2023-04-24T19:40:10;7.80;74.10
50690;DHT22;54375;48.298;11.238;2023-04-24T19:55:12;7.30;75.90
50690;DHT22;54375;48.298;11.238;2023-04-24T20:10:40;6.90;78.80
50690;DHT22;54375;48.298;11.238;2023-04-24T20:25:42;6.40;81.80
50690;DHT22;54375;48.298;11.238;2023-04-24T20:40:44;6.20;84.30
50690;DHT22;54375;48.298;11.238;2023-04-24T20:55:46;6.10;85.40
50690;DHT22;54375;48.298;11.238;2023-04-24T21:10:48;5.90;86.80
50690;DHT22;54375;48.298;11.238;2023-04-24T21:25:51;5.80;90.20
50690;DHT22;54375;48.298;11.238;2023-04-24T21:40:53;5.90;90.40
50690;DHT22;54375;48.298;11.238;2023-04-24T21:55:55;6.00;90.40
50690;DHT22;54375;48.298;11.238;2023-04-24T22:10:58;5.90;90.60
50690;DHT22;54375;48.298;11.238;2023-04-24T22:26:00;5.70;90.40
50690;DHT22;54375;48.298;11.238;2023-04-24T22:41:02;5.50;90.50
50690;DHT22;54375;48.298;11.238;2023-04-24T22:56:06;5.50;90.80
50690;DHT22;54375;48.298;11.238;2023-04-24T23:11:08;5.60;91.80
50690;DHT22;54375;48.298;11.238;2023-04-24T23:26:10;5.70;92.40
50690;DHT22;54375;48.298;11.238;2023-04-24T23:41:13;5.60;91.90
50690;DHT22;54375;48.298;11.238;2023-04-24T23:56:15;5.50;92.00
